sensor_id;sensor_type;location;lat;lon;timestamp;pressure;altitude;pressure_sealevel;temperature;humidity
18795;BME280;29610;49.022;12.114;2022-11-06T00:00:45;98199.84;;;7.54;100.00
18795;BME280;29610;49.022;12.114;2022-11-06T00:03:15;98199.34;;;7.52;100.00
18795;BME280;29610;49.022;12.114;2022-11-06T00:05:44;98200.31;;;7.37;100.00
18795;BME280;29610;49.022;12.114;2022-11-06T00:08:35;98201.75;;;7.30;100.00
18795;BME280;29610;49.022;12.114;2022-11-06T00:11:09;98197.84;;;7.17;100.00
18795;BME280;29610;49.022;12.114;2022-11-06T00:13:39;98203.31;;;7.12;100.00
18795;BME280;29610;49.022;12.114;2022-11-06T00:16:10;98190.75;;;6.98;100.00
18795;BME280;29610;49.022;12.114;2022-11-06T00:18:41;98189.53;;;6.85;100.00
18795;BME280;29610;49.022;12.114;2022-11-06T00:21:14;98201.31;;;6.66;100.00
18795;BME280;29610;49.022;12.114;2022-11-06T00:23:44;98199.81;;;6.55;100.00
18795;BME280;29610;49.022;12.114;2022-11-06T00:26:15;98196.38;;;6.44;100.00
18795;BME280;29610;49.022;12.114;2022-11-06T00:28:45;98198.56;;;6.42;100.00
18795;BME280;29610;49.022;12.114;2022-11-06T00:31:17;98199.56;;;6.51;100.00
18795;BME280;29610;49.022;12.114;2022-11-06T00:33:48;98200.78;;;6.64;100.00
18795;BME280;29610;49.022;12.114;2022-11-06T00:36:19;98196.94;;;6.75;100.00
18795;BME280;29610;49.022;12.114;2022-11-06T00:38:51;98195.81;;;6.81;100.00
18795;BME280;29610;49.022;12.114;2022-11-06T00:41:21;98197.63;;;6.85;100.00
18795;BME280;29610;49.022;12.114;2022-11-06T00:43:51;98198.91;;;6.93;100.00
18795;BME280;29610;49.022;12.114;2022-11-06T00:46:21;98200.53;;;6.94;100.00
18795;BME280;29610;49.022;12.114;2022-11-06T00:48:52;98200.59;;;6.89;100.00
18795;BME280;29610;49.022;12.114;2022-11-06T00:51:24;98204.69;;;6.81;100.00
18795;BME280;29610;49.022;12.114;2022-11-06T00:53:54;98213.00;;;6.90;100.00
18795;BME280;29610;49.022;12.114;2022-11-06T00:56:24;98208.53;;;7.04;100.00
18795;BME280;29610;49.022;12.114;2022-11-06T00:58:53;98214.66;;;7.14;100.00
18795;BME280;29610;49.022;12.114;2022-11-06T01:01:25;98212.22;;;7.13;100.00
18795;BME280;29610;49.022;12.114;2022-11-06T01:03:58;98206.44;;;6.96;100.00
18795;BME280;29610;49.022;12.114;2022-11-06T01:06:31;98206.91;;;7.03;100.00
18795;BME280;29610;49.022;12.114;2022-11-06T01:09:00;98206.72;;;6.94;100.00
18795;BME280;29610;49.022;12.114;2022-11-06T01:11:32;98201.66;;;6.88;100.00
18795;BME280;29610;49.022;12.114;2022-11-06T01:14:23;98205.09;;;6.98;100.00
18795;BME280;29610;49.022;12.114;2022-11-06T01:16:52;98206.69;;;6.99;100.00
18795;BME280;29610;49.022;12.114;2022-11-06T01:19:22;98196.72;;;6.95;100.00
18795;BME280;29610;49.022;12.114;2022-11-06T01:21:52;98195.06;;;6.99;100.00
18795;BME280;29610;49.022;12.114;2022-11-06T01:24:23;98187.31;;;6.92;100.00
18795;BME280;29610;49.022;12.114;2022-11-06T01:26:53;98192.19;;;6.90;100.00
18795;BME280;29610;49.022;12.114;2022-11-06T01:29:42;98187.34;;;6.87;100.00
18795;BME280;29610;49.022;12.114;2022-11-06T01:32:11;98188.34;;;6.96;100.00
18795;BME280;29610;49.022;12.114;2022-11-06T01:34:41;98187.91;;;7.13;100.00
18795;BME280;29610;49.022;12.114;2022-11-06T01:37:09;98191.88;;;7.20;100.00
18795;BME280;29610;49.022;12.114;2022-11-06T01:39:41;98194.75;;;7.29;100.00
18795;BME280;29610;49.022;12.114;2022-11-06T01:42:11;98188.56;;;7.47;100.00
18795;BME280;29610;49.022;12.114;2022-11-06T01:45:25;98199.22;;;7.62;100.00
18795;BME280;29610;49.022;12.114;2022-11-06T01:47:55;98191.13;;;7.81;100.00
18795;BME280;29610;49.022;12.114;2022-11-06T01:50:25;98185.63;;;7.86;100.00
18795;BME280;29610;49.022;12.114;2022-11-06T01:52:55;98180.22;;;8.04;100.00
18795;BME280;29610;49.022;12.114;2022-11-06T01:55:34;98180.66;;;8.11;100.00
18795;BME280;29610;49.022;12.114;2022-11-06T01:58:06;98180.81;;;8.20;100.00
18795;BME280;29610;49.022;12.114;2022-11-06T02:00:37;98180.38;;;8.31;100.00
18795;BME280;29610;49.022;12.114;2022-11-06T02:03:06;98177.66;;;8.31;100.00
18795;BME280;29610;49.022;12.114;2022-11-06T02:05:37;98167.44;;;8.10;100.00
18795;BME280;29610;49.022;12.114;2022-11-06T02:08:08;98166.78;;;8.18;100.00
18795;BME280;29610;49.022;12.114;2022-11-06T02:10:38;98164.56;;;8.20;100.00
18795;BME280;29610;49.022;12.114;2022-11-06T02:13:25;98160.13;;;8.10;100.00
18795;BME280;29610;49.022;12.114;2022-11-06T02:16:08;98169.09;;;8.06;100.00
18795;BME280;29610;49.022;12.114;2022-11-06T02:18:54;98170.63;;;7.93;100.00
18795;BME280;29610;49.022;12.114;2022-11-06T02:22:03;98175.19;;;7.98;100.00
18795;BME280;29610;49.022;12.114;2022-11-06T02:24:49;98180.59;;;8.16;100.00
18795;BME280;29610;49.022;12.114;2022-11-06T02:27:23;98179.19;;;8.19;100.00
18795;BME280;29610;49.022;12.114;2022-11-06T02:29:58;98178.34;;;8.23;100.00
18795;BME280;29610;49.022;12.114;2022-11-06T02:32:35;98176.16;;;8.25;100.00
18795;BME280;29610;49.022;12.114;2022-11-06T02:35:17;98182.56;;;8.11;100.00
18795;BME280;29610;49.022;12.114;2022-11-06T02:37:51;98182.56;;;8.11;100.00
18795;BME280;29610;49.022;12.114;2022-11-06T02:40:25;98178.56;;;8.08;100.00
18795;BME280;29610;49.022;12.114;2022-11-06T02:43:04;98173.72;;;8.05;100.00
18795;BME280;29610;49.022;12.114;2022-11-06T02:45:41;98172.97;;;8.00;100.00
18795;BME280;29610;49.022;12.114;2022-11-06T02:48:15;98174.97;;;7.94;100.00
18795;BME280;29610;49.022;12.114;2022-11-06T02:50:49;98171.47;;;7.75;100.00
18795;BME280;29610;49.022;12.114;2022-11-06T02:53:24;98179.00;;;7.78;100.00
18795;BME280;29610;49.022;12.114;2022-11-06T02:56:01;98172.94;;;7.86;100.00
18795;BME280;29610;49.022;12.114;2022-11-06T02:58:41;98172.84;;;7.91;100.00
18795;BME280;29610;49.022;12.114;2022-11-06T03:01:23;98176.94;;;7.89;100.00
18795;BME280;29610;49.022;12.114;2022-11-06T03:04:01;98168.75;;;7.75;100.00
18795;BME280;29610;49.022;12.114;2022-11-06T03:06:36;98162.69;;;7.83;100.00
18795;BME280;29610;49.022;12.114;2022-11-06T03:09:09;98166.19;;;7.84;100.00
18795;BME280;29610;49.022;12.114;2022-11-06T03:11:41;98181.47;;;7.75;100.00
18795;BME280;29610;49.022;12.114;2022-11-06T03:14:16;98176.25;;;7.60;100.00
18795;BME280;29610;49.022;12.114;2022-11-06T03:16:55;98174.44;;;7.74;100.00
18795;BME280;29610;49.022;12.114;2022-11-06T03:19:29;98174.59;;;7.82;100.00
18795;BME280;29610;49.022;12.114;2022-11-06T03:22:08;98173.75;;;7.63;100.00
18795;BME280;29610;49.022;12.114;2022-11-06T03:24:46;98169.63;;;7.71;100.00
18795;BME280;29610;49.022;12.114;2022-11-06T03:27:21;98165.66;;;7.63;100.00
18795;BME280;29610;49.022;12.114;2022-11-06T03:29:59;98161.72;;;7.74;100.00
18795;BME280;29610;49.022;12.114;2022-11-06T03:32:34;98168.00;;;7.70;100.00
18795;BME280;29610;49.022;12.114;2022-11-06T03:35:12;98169.25;;;7.35;100.00
18795;BME280;29610;49.022;12.114;2022-11-06T03:37:52;98171.34;;;7.19;100.00
18795;BME280;29610;49.022;12.114;2022-11-06T03:40:28;98168.22;;;7.55;100.00
18795;BME280;29610;49.022;12.114;2022-11-06T03:43:02;98171.06;;;7.63;100.00
18795;BME280;29610;49.022;12.114;2022-11-06T03:45:39;98165.63;;;7.44;100.00
18795;BME280;29610;49.022;12.114;2022-11-06T03:48:14;98152.66;;;7.65;100.00
18795;BME280;29610;49.022;12.114;2022-11-06T03:50:54;98166.94;;;7.71;100.00
18795;BME280;29610;49.022;12.114;2022-11-06T03:53:28;98166.69;;;7.86;100.00
18795;BME280;29610;49.022;12.114;2022-11-06T03:56:03;98160.09;;;7.92;100.00
18795;BME280;29610;49.022;12.114;2022-11-06T03:58:38;98152.16;;;7.82;100.00
18795;BME280;29610;49.022;12.114;2022-11-06T04:01:13;98151.56;;;7.85;100.00
18795;BME280;29610;49.022;12.114;2022-11-06T04:03:47;98153.47;;;7.84;100.00
18795;BME280;29610;49.022;12.114;2022-11-06T04:06:24;98150.63;;;7.94;100.00
18795;BME280;29610;49.022;12.114;2022-11-06T04:09:00;98149.44;;;7.82;100.00
18795;BME280;29610;49.022;12.114;2022-11-06T04:11:48;98150.75;;;8.03;100.00
18795;BME280;29610;49.022;12.114;2022-11-06T04:14:41;98146.22;;;7.98;100.00
18795;BME280;29610;49.022;12.114;2022-11-06T04:17:14;98147.44;;;8.06;100.00
18795;BME280;29610;49.022;12.114;2022-11-06T04:19:48;98149.28;;;8.10;100.00
18795;BME280;29610;49.022;12.114;2022-11-06T04:22:33;98146.09;;;7.90;100.00
18795;BME280;29610;49.022;12.114;2022-11-06T04:25:25;98142.00;;;7.74;100.00
18795;BME280;29610;49.022;12.114;2022-11-06T04:28:26;98152.94;;;7.82;100.00
18795;BME280;29610;49.022;12.114;2022-11-06T04:31:08;98143.81;;;7.78;100.00
18795;BME280;29610;49.022;12.114;2022-11-06T04:33:48;98141.22;;;7.87;100.00
18795;BME280;29610;49.022;12.114;2022-11-06T04:36:30;98137.16;;;7.89;100.00
18795;BME280;29610;49.022;12.114;2022-11-06T04:39:09;98128.94;;;7.76;100.00
18795;BME280;29610;49.022;12.114;2022-11-06T04:41:51;98128.28;;;7.84;100.00
18795;BME280;29610;49.022;12.114;2022-11-06T04:44:31;98126.03;;;7.91;100.00
18795;BME280;29610;49.022;12.114;2022-11-06T04:47:05;98122.06;;;8.02;100.00
18795;BME280;29610;49.022;12.114;2022-11-06T04:49:39;98120.19;;;8.02;100.00
18795;BME280;29610;49.022;12.114;2022-11-06T04:52:15;98117.47;;;8.02;100.00
18795;BME280;29610;49.022;12.114;2022-11-06T04:54:46;98111.31;;;7.97;100.00
18795;BME280;29610;49.022;12.114;2022-11-06T04:57:15;98111.63;;;7.95;100.00
18795;BME280;29610;49.022;12.114;2022-11-06T04:59:44;98102.91;;;7.98;100.00
18795;BME280;29610;49.022;12.114;2022-11-06T05:02:12;98109.72;;;7.96;100.00
18795;BME280;29610;49.022;12.114;2022-11-06T05:04:42;98111.31;;;7.97;100.00
18795;BME280;29610;49.022;12.114;2022-11-06T05:07:12;98104.91;;;7.93;100.00
18795;BME280;29610;49.022;12.114;2022-11-06T05:09:41;98089.25;;;7.90;100.00
18795;BME280;29610;49.022;12.114;2022-11-06T05:12:10;98101.38;;;7.92;100.00
18795;BME280;29610;49.022;12.114;2022-11-06T05:14:38;98098.75;;;7.87;100.00
18795;BME280;29610;49.022;12.114;2022-11-06T05:17:07;98095.69;;;7.94;100.00
18795;BME280;29610;49.022;12.114;2022-11-06T05:19:35;98092.16;;;7.93;100.00
18795;BME280;29610;49.022;12.114;2022-11-06T05:22:05;98095.22;;;7.87;100.00
18795;BME280;29610;49.022;12.114;2022-11-06T05:24:51;98087.94;;;7.87;100.00
18795;BME280;29610;49.022;12.114;2022-11-06T05:27:20;98094.09;;;7.93;100.00
18795;BME280;29610;49.022;12.114;2022-11-06T05:29:48;98100.44;;;8.02;100.00
18795;BME280;29610;49.022;12.114;2022-11-06T05:32:17;98098.72;;;8.06;100.00
18795;BME280;29610;49.022;12.114;2022-11-06T05:34:45;98093.56;;;7.91;100.00
18795;BME280;29610;49.022;12.114;2022-11-06T05:37:15;98095.03;;;7.83;100.00
18795;BME280;29610;49.022;12.114;2022-11-06T05:39:44;98105.31;;;8.00;100.00
18795;BME280;29610;49.022;12.114;2022-11-06T05:42:12;98096.88;;;7.88;100.00
18795;BME280;29610;49.022;12.114;2022-11-06T05:44:41;98100.72;;;8.00;100.00
18795;BME280;29610;49.022;12.114;2022-11-06T05:47:09;98099.25;;;8.08;100.00
18795;BME280;29610;49.022;12.114;2022-11-06T05:49:38;98106.44;;;7.99;100.00
18795;BME280;29610;49.022;12.114;2022-11-06T05:52:07;98109.72;;;7.96;100.00
18795;BME280;29610;49.022;12.114;2022-11-06T05:54:37;98109.81;;;7.91;100.00
18795;BME280;29610;49.022;12.114;2022-11-06T05:57:05;98109.22;;;7.94;100.00
18795;BME280;29610;49.022;12.114;2022-11-06T05:59:35;98101.53;;;8.01;100.00
18795;BME280;29610;49.022;12.114;2022-11-06T06:02:03;98097.50;;;7.98;100.00
18795;BME280;29610;49.022;12.114;2022-11-06T06:04:32;98095.59;;;7.99;100.00
18795;BME280;29610;49.022;12.114;2022-11-06T06:07:01;98106.34;;;8.04;100.00
18795;BME280;29610;49.022;12.114;2022-11-06T06:09:29;98106.06;;;8.05;100.00
18795;BME280;29610;49.022;12.114;2022-11-06T06:12:00;98113.47;;;7.81;100.00
18795;BME280;29610;49.022;12.114;2022-11-06T06:14:28;98107.25;;;7.81;100.00
18795;BME280;29610;49.022;12.114;2022-11-06T06:16:57;98112.59;;;7.86;100.00
18795;BME280;29610;49.022;12.114;2022-11-06T06:19:25;98109.72;;;7.96;100.00
18795;BME280;29610;49.022;12.114;2022-11-06T06:21:54;98109.22;;;7.94;100.00
18795;BME280;29610;49.022;12.114;2022-11-06T06:24:22;98111.03;;;7.98;100.00
18795;BME280;29610;49.022;12.114;2022-11-06T06:26:51;98104.25;;;7.82;100.00
18795;BME280;29610;49.022;12.114;2022-11-06T06:29:21;98101.47;;;7.69;100.00
18795;BME280;29610;49.022;12.114;2022-11-06T06:31:50;98094.31;;;7.78;100.00
18795;BME280;29610;49.022;12.114;2022-11-06T06:34:18;98095.34;;;7.82;100.00
18795;BME280;29610;49.022;12.114;2022-11-06T06:36:48;98091.66;;;7.91;100.00
18795;BME280;29610;49.022;12.114;2022-11-06T06:39:18;98097.94;;;7.87;100.00
18795;BME280;29610;49.022;12.114;2022-11-06T06:41:47;98085.44;;;7.91;100.00
18795;BME280;29610;49.022;12.114;2022-11-06T06:44:16;98086.75;;;7.93;100.00
18795;BME280;29610;49.022;12.114;2022-11-06T06:46:46;98093.78;;;7.94;100.00
18795;BME280;29610;49.022;12.114;2022-11-06T06:49:14;98103.56;;;7.90;100.00
18795;BME280;29610;49.022;12.114;2022-11-06T06:51:43;98094.88;;;7.93;100.00
18795;BME280;29610;49.022;12.114;2022-11-06T06:54:12;98090.78;;;7.96;100.00
18795;BME280;29610;49.022;12.114;2022-11-06T06:56:41;98091.88;;;7.95;100.00
18795;BME280;29610;49.022;12.114;2022-11-06T06:59:09;98075.78;;;8.03;100.00
18795;BME280;29610;49.022;12.114;2022-11-06T07:01:38;98075.59;;;7.81;100.00
18795;BME280;29610;49.022;12.114;2022-11-06T07:04:09;98079.28;;;8.04;100.00
18795;BME280;29610;49.022;12.114;2022-11-06T07:06:38;98079.38;;;7.99;100.00
18795;BME280;29610;49.022;12.114;2022-11-06T07:09:07;98086.84;;;8.20;100.00
18795;BME280;29610;49.022;12.114;2022-11-06T07:11:35;98084.94;;;8.39;100.00
18795;BME280;29610;49.022;12.114;2022-11-06T07:14:04;98087.94;;;8.38;100.00
18795;BME280;29610;49.022;12.114;2022-11-06T07:16:32;98101.44;;;8.24;100.00
18795;BME280;29610;49.022;12.114;2022-11-06T07:19:01;98090.63;;;8.38;100.00
18795;BME280;29610;49.022;12.114;2022-11-06T07:21:31;98092.19;;;8.57;100.00
18795;BME280;29610;49.022;12.114;2022-11-06T07:24:00;98089.81;;;8.69;100.00
18795;BME280;29610;49.022;12.114;2022-11-06T07:26:28;98090.97;;;8.50;100.00
18795;BME280;29610;49.022;12.114;2022-11-06T07:28:57;98089.56;;;8.52;100.00
18795;BME280;29610;49.022;12.114;2022-11-06T07:31:25;98082.16;;;8.58;100.00
18795;BME280;29610;49.022;12.114;2022-11-06T07:33:54;98089.56;;;8.52;100.00
18795;BME280;29610;49.022;12.114;2022-11-06T07:36:24;98096.91;;;8.65;100.00
18795;BME280;29610;49.022;12.114;2022-11-06T07:38:54;98094.22;;;8.65;100.00
18795;BME280;29610;49.022;12.114;2022-11-06T07:41:23;98093.09;;;8.66;100.00
18795;BME280;29610;49.022;12.114;2022-11-06T07:43:51;98095.72;;;8.71;100.00
18795;BME280;29610;49.022;12.114;2022-11-06T07:46:20;98098.72;;;8.70;100.00
18795;BME280;29610;49.022;12.114;2022-11-06T07:48:49;98109.97;;;8.63;100.00
18795;BME280;29610;49.022;12.114;2022-11-06T07:51:18;98114.59;;;8.63;100.00
18795;BME280;29610;49.022;12.114;2022-11-06T07:53:46;98104.81;;;8.48;100.00
18795;BME280;29610;49.022;12.114;2022-11-06T07:56:16;98116.06;;;8.55;100.00
18795;BME280;29610;49.022;12.114;2022-11-06T07:58:45;98124.19;;;8.55;100.00
18795;BME280;29610;49.022;12.114;2022-11-06T08:01:16;98128.53;;;8.56;100.00
18795;BME280;29610;49.022;12.114;2022-11-06T08:03:46;98133.06;;;8.74;100.00
18795;BME280;29610;49.022;12.114;2022-11-06T08:06:14;98129.88;;;8.86;100.00
18795;BME280;29610;49.022;12.114;2022-11-06T08:08:43;98124.34;;;8.77;100.00
18795;BME280;29610;49.022;12.114;2022-11-06T08:11:16;98111.31;;;8.93;100.00
18795;BME280;29610;49.022;12.114;2022-11-06T08:13:46;98121.88;;;9.22;100.00
18795;BME280;29610;49.022;12.114;2022-11-06T08:16:15;98107.66;;;9.38;100.00
18795;BME280;29610;49.022;12.114;2022-11-06T08:18:43;98102.44;;;9.55;100.00
18795;BME280;29610;49.022;12.114;2022-11-06T08:21:12;98087.25;;;9.54;100.00
18795;BME280;29610;49.022;12.114;2022-11-06T08:23:41;98081.50;;;9.56;100.00
18795;BME280;29610;49.022;12.114;2022-11-06T08:26:10;98078.03;;;9.42;100.00
18795;BME280;29610;49.022;12.114;2022-11-06T08:28:39;98077.41;;;9.45;100.00
18795;BME280;29610;49.022;12.114;2022-11-06T08:31:09;98072.91;;;9.54;100.00
18795;BME280;29610;49.022;12.114;2022-11-06T08:33:38;98072.19;;;9.62;100.00
18795;BME280;29610;49.022;12.114;2022-11-06T08:36:09;98065.75;;;9.80;100.00
18795;BME280;29610;49.022;12.114;2022-11-06T08:38:38;98051.00;;;9.86;100.00
18795;BME280;29610;49.022;12.114;2022-11-06T08:41:10;98046.97;;;9.83;100.00
18795;BME280;29610;49.022;12.114;2022-11-06T08:43:39;98055.59;;;9.63;100.00
18795;BME280;29610;49.022;12.114;2022-11-06T08:46:10;98052.75;;;9.68;100.00
18795;BME280;29610;49.022;12.114;2022-11-06T08:48:39;98054.28;;;9.83;100.00
18795;BME280;29610;49.022;12.114;2022-11-06T08:51:07;98055.84;;;9.97;100.00
18795;BME280;29610;49.022;12.114;2022-11-06T08:53:36;98053.81;;;10.03;100.00
18795;BME280;29610;49.022;12.114;2022-11-06T08:56:06;98047.50;;;10.07;100.00
18795;BME280;29610;49.022;12.114;2022-11-06T08:58:35;98042.66;;;10.04;100.00
18795;BME280;29610;49.022;12.114;2022-11-06T09:01:04;98034.72;;;10.08;100.00
18795;BME280;29610;49.022;12.114;2022-11-06T09:03:34;98032.84;;;10.17;100.00
18795;BME280;29610;49.022;12.114;2022-11-06T09:06:05;98031.41;;;10.42;100.00
18795;BME280;29610;49.022;12.114;2022-11-06T09:08:34;98017.72;;;10.55;100.00
18795;BME280;29610;49.022;12.114;2022-11-06T09:11:05;98014.28;;;10.72;100.00
18795;BME280;29610;49.022;12.114;2022-11-06T09:13:35;98001.03;;;10.79;100.00
18795;BME280;29610;49.022;12.114;2022-11-06T09:16:23;97991.16;;;11.00;100.00
18795;BME280;29610;49.022;12.114;2022-11-06T09:18:55;98001.28;;;10.99;100.00
18795;BME280;29610;49.022;12.114;2022-11-06T09:21:24;98001.13;;;11.13;100.00
18795;BME280;29610;49.022;12.114;2022-11-06T09:23:53;97987.06;;;11.19;100.00
18795;BME280;29610;49.022;12.114;2022-11-06T09:26:21;98002.88;;;11.00;100.00
18795;BME280;29610;49.022;12.114;2022-11-06T09:28:50;97990.41;;;11.25;100.00
18795;BME280;29610;49.022;12.114;2022-11-06T09:31:18;97984.81;;;11.21;100.00
18795;BME280;29610;49.022;12.114;2022-11-06T09:33:47;97985.47;;;11.35;100.00
18795;BME280;29610;49.022;12.114;2022-11-06T09:36:18;97988.22;;;11.44;100.00
18795;BME280;29610;49.022;12.114;2022-11-06T09:38:47;97989.19;;;11.56;100.00
18795;BME280;29610;49.022;12.114;2022-11-06T09:41:21;97984.34;;;11.62;100.00
18795;BME280;29610;49.022;12.114;2022-11-06T09:44:07;97983.28;;;11.63;100.00
18795;BME280;29610;49.022;12.114;2022-11-06T09:46:46;97971.75;;;11.66;100.00
18795;BME280;29610;49.022;12.114;2022-11-06T09:49:22;97979.44;;;11.72;100.00
18795;BME280;29610;49.022;12.114;2022-11-06T09:52:01;97963.06;;;11.55;100.00
18795;BME280;29610;49.022;12.114;2022-11-06T09:54:37;97969.00;;;11.40;100.00
18795;BME280;29610;49.022;12.114;2022-11-06T09:57:16;97966.28;;;11.40;100.00
18795;BME280;29610;49.022;12.114;2022-11-06T09:59:47;97962.59;;;11.28;100.00
18795;BME280;29610;49.022;12.114;2022-11-06T10:02:29;97964.03;;;11.34;100.00
18795;BME280;29610;49.022;12.114;2022-11-06T10:05:09;97953.13;;;11.25;100.00
18795;BME280;29610;49.022;12.114;2022-11-06T10:07:41;97954.72;;;11.09;100.00
18795;BME280;29610;49.022;12.114;2022-11-06T10:10:17;97957.09;;;10.94;100.00
18795;BME280;29610;49.022;12.114;2022-11-06T10:13:03;97947.06;;;10.55;100.00
18795;BME280;29610;49.022;12.114;2022-11-06T10:15:43;97953.84;;;10.27;100.00
18795;BME280;29610;49.022;12.114;2022-11-06T10:18:24;97943.97;;;10.40;100.00
18795;BME280;29610;49.022;12.114;2022-11-06T10:21:07;97937.31;;;10.54;100.00
18795;BME280;29610;49.022;12.114;2022-11-06T10:23:47;97929.22;;;10.71;100.00
18795;BME280;29610;49.022;12.114;2022-11-06T10:26:21;97931.34;;;10.35;100.00
18795;BME280;29610;49.022;12.114;2022-11-06T10:29:23;97919.41;;;10.45;100.00
18795;BME280;29610;49.022;12.114;2022-11-06T10:32:13;97918.53;;;10.27;100.00
18795;BME280;29610;49.022;12.114;2022-11-06T10:34:51;97925.66;;;10.14;100.00
18795;BME280;29610;49.022;12.114;2022-11-06T10:37:28;97920.03;;;10.42;100.00
18795;BME280;29610;49.022;12.114;2022-11-06T10:40:03;97921.88;;;9.71;100.00
18795;BME280;29610;49.022;12.114;2022-11-06T10:42:37;97910.09;;;9.76;100.00
18795;BME280;29610;49.022;12.114;2022-11-06T10:45:13;97898.56;;;10.01;100.00
18795;BME280;29610;49.022;12.114;2022-11-06T10:47:47;97909.22;;;9.89;100.00
18795;BME280;29610;49.022;12.114;2022-11-06T10:50:17;97904.63;;;10.28;100.00
18795;BME280;29610;49.022;12.114;2022-11-06T10:52:54;97891.22;;;10.32;100.00
18795;BME280;29610;49.022;12.114;2022-11-06T10:56:12;97888.41;;;10.63;100.00
18795;BME280;29610;49.022;12.114;2022-11-06T10:58:47;97883.19;;;10.83;100.00
18795;BME280;29610;49.022;12.114;2022-11-06T11:01:16;97870.84;;;10.77;100.00
18795;BME280;29610;49.022;12.114;2022-11-06T11:03:46;97863.06;;;11.10;100.00
18795;BME280;29610;49.022;12.114;2022-11-06T11:06:16;97850.25;;;11.19;100.00
18795;BME280;29610;49.022;12.114;2022-11-06T11:08:46;97847.03;;;11.34;100.00
18795;BME280;29610;49.022;12.114;2022-11-06T11:11:21;97838.03;;;11.50;100.00
18795;BME280;29610;49.022;12.114;2022-11-06T11:14:12;97835.63;;;11.57;100.00
18795;BME280;29610;49.022;12.114;2022-11-06T11:16:44;97824.38;;;11.85;100.00
18795;BME280;29610;49.022;12.114;2022-11-06T11:19:25;97805.44;;;11.97;100.00
18795;BME280;29610;49.022;12.114;2022-11-06T11:21:58;97809.72;;;12.06;100.00
18795;BME280;29610;49.022;12.114;2022-11-06T11:24:27;97808.16;;;11.97;100.00
18795;BME280;29610;49.022;12.114;2022-11-06T11:27:00;97814.38;;;11.97;100.00
18795;BME280;29610;49.022;12.114;2022-11-06T11:29:32;97812.38;;;11.77;100.00
18795;BME280;29610;49.022;12.114;2022-11-06T11:32:04;97806.28;;;11.80;100.00
18795;BME280;29610;49.022;12.114;2022-11-06T11:34:41;97794.94;;;11.61;100.00
18795;BME280;29610;49.022;12.114;2022-11-06T11:37:24;97793.97;;;11.74;100.00
18795;BME280;29610;49.022;12.114;2022-11-06T11:39:55;97787.28;;;12.01;100.00
18795;BME280;29610;49.022;12.114;2022-11-06T11:42:45;97782.06;;;12.16;100.00
18795;BME280;29610;49.022;12.114;2022-11-06T11:45:17;97784.94;;;12.49;100.00
18795;BME280;29610;49.022;12.114;2022-11-06T11:47:48;97767.25;;;12.55;100.00
18795;BME280;29610;49.022;12.114;2022-11-06T11:50:28;97772.31;;;12.44;100.00
18795;BME280;29610;49.022;12.114;2022-11-06T11:53:04;97774.09;;;12.81;100.00
18795;BME280;29610;49.022;12.114;2022-11-06T11:55:42;97763.78;;;12.66;100.00
18795;BME280;29610;49.022;12.114;2022-11-06T11:58:24;97760.78;;;12.39;100.00
18795;BME280;29610;49.022;12.114;2022-11-06T12:00:57;97751.59;;;12.23;100.00
18795;BME280;29610;49.022;12.114;2022-11-06T12:03:32;97743.75;;;12.21;100.00
18795;BME280;29610;49.022;12.114;2022-11-06T12:06:09;97742.50;;;12.39;100.00
18795;BME280;29610;49.022;12.114;2022-11-06T12:08:45;97722.72;;;12.51;100.00
18795;BME280;29610;49.022;12.114;2022-11-06T12:11:20;97717.47;;;12.78;100.00
18795;BME280;29610;49.022;12.114;2022-11-06T12:14:25;97711.97;;;12.87;100.00
18795;BME280;29610;49.022;12.114;2022-11-06T12:17:01;97701.63;;;12.92;100.00
18795;BME280;29610;49.022;12.114;2022-11-06T12:19:34;97693.66;;;13.08;100.00
18795;BME280;29610;49.022;12.114;2022-11-06T12:22:11;97691.84;;;13.12;100.00
18795;BME280;29610;49.022;12.114;2022-11-06T12:24:51;97691.97;;;13.27;100.00
18795;BME280;29610;49.022;12.114;2022-11-06T12:27:26;97691.06;;;13.11;100.00
18795;BME280;29610;49.022;12.114;2022-11-06T12:30:16;97682.19;;;13.14;100.00
18795;BME280;29610;49.022;12.114;2022-11-06T12:33:38;97679.16;;;13.40;100.00
18795;BME280;29610;49.022;12.114;2022-11-06T12:36:30;97684.88;;;13.71;100.00
18795;BME280;29610;49.022;12.114;2022-11-06T12:39:11;97683.97;;;13.67;100.00
18795;BME280;29610;49.022;12.114;2022-11-06T12:47:49;97682.13;;;13.71;100.00
18795;BME280;29610;49.022;12.114;2022-11-06T12:56:15;97677.78;;;13.22;100.00
18795;BME280;29610;49.022;12.114;2022-11-06T12:59:01;97677.09;;;12.39;100.00
18795;BME280;29610;49.022;12.114;2022-11-06T13:01:59;97672.44;;;12.40;100.00
18795;BME280;29610;49.022;12.114;2022-11-06T13:04:54;97668.16;;;12.71;100.00
18795;BME280;29610;49.022;12.114;2022-11-06T13:08:07;97662.59;;;12.68;100.00
18795;BME280;29610;49.022;12.114;2022-11-06T13:11:19;97655.66;;;12.70;100.00
18795;BME280;29610;49.022;12.114;2022-11-06T13:14:12;97658.53;;;12.53;100.00
18795;BME280;29610;49.022;12.114;2022-11-06T13:16:57;97653.63;;;12.47;100.00
18795;BME280;29610;49.022;12.114;2022-11-06T13:26:51;97645.25;;;12.84;100.00
18795;BME280;29610;49.022;12.114;2022-11-06T13:29:36;97644.25;;;12.89;100.00
18795;BME280;29610;49.022;12.114;2022-11-06T13:32:32;97644.13;;;12.97;100.00
18795;BME280;29610;49.022;12.114;2022-11-06T13:35:32;97632.16;;;13.10;100.00
18795;BME280;29610;49.022;12.114;2022-11-06T13:38:37;97636.16;;;13.13;100.00
18795;BME280;29610;49.022;12.114;2022-11-06T13:41:31;97631.47;;;13.13;100.00
18795;BME280;29610;49.022;12.114;2022-11-06T13:44:10;97622.78;;;12.87;100.00
18795;BME280;29610;49.022;12.114;2022-11-06T13:47:07;97613.84;;;12.78;100.00